sensor_id;sensor_type;location;lat;lon;timestamp;temperature;humidity
27900;DHT22;15243;50.726;7.080;2023-06-04T00:01:27;12.90;1.00
27900;DHT22;15243;50.726;7.080;2023-06-04T00:03:54;12.70;1.00
27900;DHT22;15243;50.726;7.080;2023-06-04T00:06:21;12.60;19.50
27900;DHT22;15243;50.726;7.080;2023-06-04T00:08:48;12.50;1.30
27900;DHT22;15243;50.726;7.080;2023-06-04T00:11:15;12.50;11.60
27900;DHT22;15243;50.726;7.080;2023-06-04T00:13:42;12.40;14.60
27900;DHT22;15243;50.726;7.080;2023-06-04T00:16:09;12.40;26.40
27900;DHT22;15243;50.726;7.080;2023-06-04T00:18:35;12.30;34.10
27900;DHT22;15243;50.726;7.080;2023-06-04T00:21:03;12.20;37.40
27900;DHT22;15243;50.726;7.080;2023-06-04T00:23:30;12.20;53.30
27900;DHT22;15243;50.726;7.080;2023-06-04T00:25:57;12.10;45.50
27900;DHT22;15243;50.726;7.080;2023-06-04T00:28:24;12.00;60.80
27900;DHT22;15243;50.726;7.080;2023-06-04T00:30:51;11.90;56.90
27900;DHT22;15243;50.726;7.080;2023-06-04T00:33:19;11.90;52.80
27900;DHT22;15243;50.726;7.080;2023-06-04T00:35:46;11.90;73.70
27900;DHT22;15243;50.726;7.080;2023-06-04T00:38:13;11.80;84.70
27900;DHT22;15243;50.726;7.080;2023-06-04T00:40:40;11.70;91.80
27900;DHT22;15243;50.726;7.080;2023-06-04T00:43:06;11.70;93.00
27900;DHT22;15243;50.726;7.080;2023-06-04T00:45:33;11.70;99.90
27900;DHT22;15243;50.726;7.080;2023-06-04T00:48:01;11.90;74.80
27900;DHT22;15243;50.726;7.080;2023-06-04T00:50:28;11.90;62.60
27900;DHT22;15243;50.726;7.080;2023-06-04T00:52:56;11.80;76.30
27900;DHT22;15243;50.726;7.080;2023-06-04T00:55:24;11.60;78.10
27900;DHT22;15243;50.726;7.080;2023-06-04T00:57:51;11.50;96.70
27900;DHT22;15243;50.726;7.080;2023-06-04T01:00:18;11.50;93.90
27900;DHT22;15243;50.726;7.080;2023-06-04T01:02:49;11.40;85.40
27900;DHT22;15243;50.726;7.080;2023-06-04T01:05:29;11.30;90.20
27900;DHT22;15243;50.726;7.080;2023-06-04T01:08:01;11.20;99.90
27900;DHT22;15243;50.726;7.080;2023-06-04T01:10:28;11.10;99.90
27900;DHT22;15243;50.726;7.080;2023-06-04T01:12:55;11.00;99.90
27900;DHT22;15243;50.726;7.080;2023-06-04T01:15:21;11.00;99.90
27900;DHT22;15243;50.726;7.080;2023-06-04T01:17:52;11.00;99.90
27900;DHT22;15243;50.726;7.080;2023-06-04T01:23:37;10.80;99.90
27900;DHT22;15243;50.726;7.080;2023-06-04T01:26:10;10.80;99.90
27900;DHT22;15243;50.726;7.080;2023-06-04T01:28:37;10.80;99.90
27900;DHT22;15243;50.726;7.080;2023-06-04T01:31:05;10.70;99.90
27900;DHT22;15243;50.726;7.080;2023-06-04T01:33:35;10.70;99.90
27900;DHT22;15243;50.726;7.080;2023-06-04T01:36:02;10.60;99.90
27900;DHT22;15243;50.726;7.080;2023-06-04T01:38:29;10.80;99.90
27900;DHT22;15243;50.726;7.080;2023-06-04T01:40:56;10.60;99.90
27900;DHT22;15243;50.726;7.080;2023-06-04T01:43:28;10.50;99.90
27900;DHT22;15243;50.726;7.080;2023-06-04T01:45:55;10.50;99.90
27900;DHT22;15243;50.726;7.080;2023-06-04T01:48:23;10.60;99.90
27900;DHT22;15243;50.726;7.080;2023-06-04T01:50:50;10.60;99.90
27900;DHT22;15243;50.726;7.080;2023-06-04T01:53:17;10.50;99.90
27900;DHT22;15243;50.726;7.080;2023-06-04T01:55:44;10.40;99.90
27900;DHT22;15243;50.726;7.080;2023-06-04T01:58:11;10.40;99.90
27900;DHT22;15243;50.726;7.080;2023-06-04T02:00:38;10.40;99.90
27900;DHT22;15243;50.726;7.080;2023-06-04T02:03:05;10.40;99.90
27900;DHT22;15243;50.726;7.080;2023-06-04T02:05:32;10.30;99.90
27900;DHT22;15243;50.726;7.080;2023-06-04T02:07:59;10.20;99.90
27900;DHT22;15243;50.726;7.080;2023-06-04T02:10:28;10.10;99.90
27900;DHT22;15243;50.726;7.080;2023-06-04T02:12:59;10.10;99.90
27900;DHT22;15243;50.726;7.080;2023-06-04T02:15:27;10.00;99.90
27900;DHT22;15243;50.726;7.080;2023-06-04T02:17:58;10.00;99.90
27900;DHT22;15243;50.726;7.080;2023-06-04T02:20:27;10.10;99.90
27900;DHT22;15243;50.726;7.080;2023-06-04T02:22:56;10.10;99.90
27900;DHT22;15243;50.726;7.080;2023-06-04T02:25:24;10.00;99.90
27900;DHT22;15243;50.726;7.080;2023-06-04T02:27:50;10.10;99.90
27900;DHT22;15243;50.726;7.080;2023-06-04T02:30:17;9.90;99.90
27900;DHT22;15243;50.726;7.080;2023-06-04T02:32:44;9.80;99.90
27900;DHT22;15243;50.726;7.080;2023-06-04T02:35:18;9.80;99.90
27900;DHT22;15243;50.726;7.080;2023-06-04T02:37:45;9.70;99.90
27900;DHT22;15243;50.726;7.080;2023-06-04T02:40:12;9.60;99.90
27900;DHT22;15243;50.726;7.080;2023-06-04T02:42:39;9.50;99.90
27900;DHT22;15243;50.726;7.080;2023-06-04T02:45:07;9.50;99.90
27900;DHT22;15243;50.726;7.080;2023-06-04T02:47:34;9.50;99.90
27900;DHT22;15243;50.726;7.080;2023-06-04T02:50:01;9.40;99.90
27900;DHT22;15243;50.726;7.080;2023-06-04T02:52:30;9.40;99.90
27900;DHT22;15243;50.726;7.080;2023-06-04T02:54:57;9.40;99.90
27900;DHT22;15243;50.726;7.080;2023-06-04T02:57:24;9.40;99.90
27900;DHT22;15243;50.726;7.080;2023-06-04T02:59:51;9.40;99.90
27900;DHT22;15243;50.726;7.080;2023-06-04T03:02:18;9.40;99.90
27900;DHT22;15243;50.726;7.080;2023-06-04T03:04:45;9.40;99.90
27900;DHT22;15243;50.726;7.080;2023-06-04T03:07:14;9.40;99.90
27900;DHT22;15243;50.726;7.080;2023-06-04T03:09:41;9.40;99.90
27900;DHT22;15243;50.726;7.080;2023-06-04T03:12:09;9.40;99.90
27900;DHT22;15243;50.726;7.080;2023-06-04T03:14:36;9.40;99.90
27900;DHT22;15243;50.726;7.080;2023-06-04T03:17:03;9.50;99.90
27900;DHT22;15243;50.726;7.080;2023-06-04T03:19:41;9.50;99.90
27900;DHT22;15243;50.726;7.080;2023-06-04T03:22:08;9.30;99.90
27900;DHT22;15243;50.726;7.080;2023-06-04T03:24:40;9.20;99.90
27900;DHT22;15243;50.726;7.080;2023-06-04T03:27:08;9.10;99.90
27900;DHT22;15243;50.726;7.080;2023-06-04T03:29:36;9.10;99.90
27900;DHT22;15243;50.726;7.080;2023-06-04T03:32:03;9.00;99.90
27900;DHT22;15243;50.726;7.080;2023-06-04T03:34:31;9.20;99.90
27900;DHT22;15243;50.726;7.080;2023-06-04T03:37:01;9.10;99.90
27900;DHT22;15243;50.726;7.080;2023-06-04T03:39:29;9.20;99.90
27900;DHT22;15243;50.726;7.080;2023-06-04T03:41:56;9.10;99.90
27900;DHT22;15243;50.726;7.080;2023-06-04T03:44:23;9.00;99.90
27900;DHT22;15243;50.726;7.080;2023-06-04T03:46:50;9.00;99.90
27900;DHT22;15243;50.726;7.080;2023-06-04T03:49:17;8.90;99.90
27900;DHT22;15243;50.726;7.080;2023-06-04T03:51:44;8.90;99.90
27900;DHT22;15243;50.726;7.080;2023-06-04T03:54:11;8.90;99.90
27900;DHT22;15243;50.726;7.080;2023-06-04T03:56:38;8.80;99.90
27900;DHT22;15243;50.726;7.080;2023-06-04T03:59:06;8.80;99.90
27900;DHT22;15243;50.726;7.080;2023-06-04T04:01:33;8.80;99.90
27900;DHT22;15243;50.726;7.080;2023-06-04T04:04:00;8.90;99.90
27900;DHT22;15243;50.726;7.080;2023-06-04T04:06:27;9.00;99.90
27900;DHT22;15243;50.726;7.080;2023-06-04T04:08:54;9.00;99.90
27900;DHT22;15243;50.726;7.080;2023-06-04T04:11:21;9.10;99.90
27900;DHT22;15243;50.726;7.080;2023-06-04T04:13:48;9.10;99.90
27900;DHT22;15243;50.726;7.080;2023-06-04T04:16:15;9.10;99.90
27900;DHT22;15243;50.726;7.080;2023-06-04T04:18:42;9.10;99.90
27900;DHT22;15243;50.726;7.080;2023-06-04T04:21:13;9.10;99.90
27900;DHT22;15243;50.726;7.080;2023-06-04T04:23:40;9.20;99.90
27900;DHT22;15243;50.726;7.080;2023-06-04T04:26:08;9.20;99.90
27900;DHT22;15243;50.726;7.080;2023-06-04T04:28:36;9.30;99.90
27900;DHT22;15243;50.726;7.080;2023-06-04T04:31:04;9.50;99.90
27900;DHT22;15243;50.726;7.080;2023-06-04T04:33:35;9.70;99.90
27900;DHT22;15243;50.726;7.080;2023-06-04T04:36:06;9.80;99.90
27900;DHT22;15243;50.726;7.080;2023-06-04T04:38:36;9.80;99.90
27900;DHT22;15243;50.726;7.080;2023-06-04T04:41:03;9.70;99.90
27900;DHT22;15243;50.726;7.080;2023-06-04T04:43:32;9.80;99.90
27900;DHT22;15243;50.726;7.080;2023-06-04T04:45:59;9.80;99.90
27900;DHT22;15243;50.726;7.080;2023-06-04T04:48:27;9.90;99.90
27900;DHT22;15243;50.726;7.080;2023-06-04T04:50:54;10.00;99.90
27900;DHT22;15243;50.726;7.080;2023-06-04T04:53:21;10.00;99.90
27900;DHT22;15243;50.726;7.080;2023-06-04T04:55:48;10.10;99.90
27900;DHT22;15243;50.726;7.080;2023-06-04T04:58:17;10.20;99.90
27900;DHT22;15243;50.726;7.080;2023-06-04T05:00:44;10.30;99.90
27900;DHT22;15243;50.726;7.080;2023-06-04T05:03:12;10.60;99.90
27900;DHT22;15243;50.726;7.080;2023-06-04T05:05:39;10.80;99.90
27900;DHT22;15243;50.726;7.080;2023-06-04T05:08:06;10.90;99.90
27900;DHT22;15243;50.726;7.080;2023-06-04T05:10:33;10.90;99.90
27900;DHT22;15243;50.726;7.080;2023-06-04T05:13:02;10.80;99.90
27900;DHT22;15243;50.726;7.080;2023-06-04T05:15:31;11.00;99.90
27900;DHT22;15243;50.726;7.080;2023-06-04T05:17:58;11.10;99.90
27900;DHT22;15243;50.726;7.080;2023-06-04T05:20:27;11.30;99.90
27900;DHT22;15243;50.726;7.080;2023-06-04T05:22:54;11.40;99.90
27900;DHT22;15243;50.726;7.080;2023-06-04T05:25:22;11.50;99.90
27900;DHT22;15243;50.726;7.080;2023-06-04T05:27:49;11.50;99.90
27900;DHT22;15243;50.726;7.080;2023-06-04T05:30:16;11.70;99.90
27900;DHT22;15243;50.726;7.080;2023-06-04T05:32:43;11.70;99.90
27900;DHT22;15243;50.726;7.080;2023-06-04T05:35:10;11.80;99.90
27900;DHT22;15243;50.726;7.080;2023-06-04T05:37:38;12.00;99.90
27900;DHT22;15243;50.726;7.080;2023-06-04T05:40:07;12.20;99.90
27900;DHT22;15243;50.726;7.080;2023-06-04T05:42:36;12.10;99.90
27900;DHT22;15243;50.726;7.080;2023-06-04T05:45:03;12.20;99.90
27900;DHT22;15243;50.726;7.080;2023-06-04T05:47:30;12.30;99.90
27900;DHT22;15243;50.726;7.080;2023-06-04T05:49:58;12.50;93.60
27900;DHT22;15243;50.726;7.080;2023-06-04T05:52:25;12.70;40.30
27900;DHT22;15243;50.726;7.080;2023-06-04T05:54:52;12.90;21.10
27900;DHT22;15243;50.726;7.080;2023-06-04T05:57:20;12.90;16.50
27900;DHT22;15243;50.726;7.080;2023-06-04T05:59:47;12.80;6.80
27900;DHT22;15243;50.726;7.080;2023-06-04T06:02:14;13.00;1.00
27900;DHT22;15243;50.726;7.080;2023-06-04T06:04:41;13.00;4.00
27900;DHT22;15243;50.726;7.080;2023-06-04T06:07:08;13.20;6.00
27900;DHT22;15243;50.726;7.080;2023-06-04T06:09:36;13.40;1.00
27900;DHT22;15243;50.726;7.080;2023-06-04T06:12:03;13.40;1.00
27900;DHT22;15243;50.726;7.080;2023-06-04T06:14:30;13.50;1.00
27900;DHT22;15243;50.726;7.080;2023-06-04T06:16:57;13.60;1.00
27900;DHT22;15243;50.726;7.080;2023-06-04T06:19:24;13.50;1.00
27900;DHT22;15243;50.726;7.080;2023-06-04T06:21:51;13.50;1.00
27900;DHT22;15243;50.726;7.080;2023-06-04T06:24:18;13.70;1.00
27900;DHT22;15243;50.726;7.080;2023-06-04T06:26:45;13.80;1.00
27900;DHT22;15243;50.726;7.080;2023-06-04T06:29:12;14.00;1.00
27900;DHT22;15243;50.726;7.080;2023-06-04T06:31:39;14.10;1.00
27900;DHT22;15243;50.726;7.080;2023-06-04T06:34:07;14.30;1.00
27900;DHT22;15243;50.726;7.080;2023-06-04T06:36:34;14.60;1.00
27900;DHT22;15243;50.726;7.080;2023-06-04T06:39:01;14.70;1.00
27900;DHT22;15243;50.726;7.080;2023-06-04T06:41:28;14.70;1.00
27900;DHT22;15243;50.726;7.080;2023-06-04T06:43:57;14.80;1.00
27900;DHT22;15243;50.726;7.080;2023-06-04T06:46:24;14.60;1.00
27900;DHT22;15243;50.726;7.080;2023-06-04T06:48:51;14.90;1.00
27900;DHT22;15243;50.726;7.080;2023-06-04T06:51:18;15.00;1.00
27900;DHT22;15243;50.726;7.080;2023-06-04T06:53:45;15.10;1.00
27900;DHT22;15243;50.726;7.080;2023-06-04T06:56:14;15.40;1.00
27900;DHT22;15243;50.726;7.080;2023-06-04T06:58:41;15.50;1.00
27900;DHT22;15243;50.726;7.080;2023-06-04T07:01:08;15.50;1.00
27900;DHT22;15243;50.726;7.080;2023-06-04T07:03:36;15.30;1.00
27900;DHT22;15243;50.726;7.080;2023-06-04T07:06:02;15.60;1.00
27900;DHT22;15243;50.726;7.080;2023-06-04T07:08:29;15.70;1.00
27900;DHT22;15243;50.726;7.080;2023-06-04T07:10:57;15.80;1.00
27900;DHT22;15243;50.726;7.080;2023-06-04T07:13:23;15.90;1.00
27900;DHT22;15243;50.726;7.080;2023-06-04T07:15:50;16.00;99.90
27900;DHT22;15243;50.726;7.080;2023-06-04T07:18:17;16.00;99.90
27900;DHT22;15243;50.726;7.080;2023-06-04T07:20:44;16.20;99.90
27900;DHT22;15243;50.726;7.080;2023-06-04T07:23:11;16.20;99.90
27900;DHT22;15243;50.726;7.080;2023-06-04T07:25:38;16.20;99.90
27900;DHT22;15243;50.726;7.080;2023-06-04T07:28:05;16.40;1.00
27900;DHT22;15243;50.726;7.080;2023-06-04T07:30:32;16.70;99.90
27900;DHT22;15243;50.726;7.080;2023-06-04T07:33:01;16.70;99.90
27900;DHT22;15243;50.726;7.080;2023-06-04T07:35:28;16.90;99.90
27900;DHT22;15243;50.726;7.080;2023-06-04T07:37:55;17.00;99.90
27900;DHT22;15243;50.726;7.080;2023-06-04T07:40:21;17.00;99.90
27900;DHT22;15243;50.726;7.080;2023-06-04T07:42:48;17.00;99.90
27900;DHT22;15243;50.726;7.080;2023-06-04T07:45:15;17.20;99.90
27900;DHT22;15243;50.726;7.080;2023-06-04T07:47:43;17.40;99.90
27900;DHT22;15243;50.726;7.080;2023-06-04T07:50:11;17.30;99.90
27900;DHT22;15243;50.726;7.080;2023-06-04T07:52:37;17.40;99.90
27900;DHT22;15243;50.726;7.080;2023-06-04T07:55:05;17.40;99.90
27900;DHT22;15243;50.726;7.080;2023-06-04T07:57:32;17.30;99.90
27900;DHT22;15243;50.726;7.080;2023-06-04T07:59:59;17.40;99.90
27900;DHT22;15243;50.726;7.080;2023-06-04T08:02:26;17.50;99.90
27900;DHT22;15243;50.726;7.080;2023-06-04T08:04:53;17.80;99.90
27900;DHT22;15243;50.726;7.080;2023-06-04T08:07:20;17.90;99.90
27900;DHT22;15243;50.726;7.080;2023-06-04T08:09:47;18.10;99.90
27900;DHT22;15243;50.726;7.080;2023-06-04T08:12:15;18.20;99.90
27900;DHT22;15243;50.726;7.080;2023-06-04T08:14:42;18.30;99.90
27900;DHT22;15243;50.726;7.080;2023-06-04T08:17:09;18.40;99.90
27900;DHT22;15243;50.726;7.080;2023-06-04T08:19:36;18.60;99.90
27900;DHT22;15243;50.726;7.080;2023-06-04T08:22:04;18.50;99.90
27900;DHT22;15243;50.726;7.080;2023-06-04T08:24:31;18.40;99.90
27900;DHT22;15243;50.726;7.080;2023-06-04T08:26:57;18.50;99.90
27900;DHT22;15243;50.726;7.080;2023-06-04T08:29:24;18.70;99.90
27900;DHT22;15243;50.726;7.080;2023-06-04T08:31:51;19.20;99.90
27900;DHT22;15243;50.726;7.080;2023-06-04T08:34:18;19.30;99.90
27900;DHT22;15243;50.726;7.080;2023-06-04T08:36:45;19.60;99.90
27900;DHT22;15243;50.726;7.080;2023-06-04T08:39:13;19.50;99.90
27900;DHT22;15243;50.726;7.080;2023-06-04T08:41:45;19.50;99.90
27900;DHT22;15243;50.726;7.080;2023-06-04T08:44:12;19.40;99.90
27900;DHT22;15243;50.726;7.080;2023-06-04T08:46:40;19.30;99.90
27900;DHT22;15243;50.726;7.080;2023-06-04T08:49:08;19.60;99.90
27900;DHT22;15243;50.726;7.080;2023-06-04T08:51:37;20.00;99.90
27900;DHT22;15243;50.726;7.080;2023-06-04T08:54:08;20.10;99.90
27900;DHT22;15243;50.726;7.080;2023-06-04T08:56:35;20.10;99.90
27900;DHT22;15243;50.726;7.080;2023-06-04T08:59:06;20.30;99.90
27900;DHT22;15243;50.726;7.080;2023-06-04T09:01:35;20.40;99.90
27900;DHT22;15243;50.726;7.080;2023-06-04T09:04:05;20.60;99.90
27900;DHT22;15243;50.726;7.080;2023-06-04T09:06:36;20.60;99.90
27900;DHT22;15243;50.726;7.080;2023-06-04T09:09:05;21.10;99.90
27900;DHT22;15243;50.726;7.080;2023-06-04T09:11:49;21.30;99.90
27900;DHT22;15243;50.726;7.080;2023-06-04T09:14:17;21.10;99.90
27900;DHT22;15243;50.726;7.080;2023-06-04T09:16:49;21.40;99.90
27900;DHT22;15243;50.726;7.080;2023-06-04T09:19:18;21.60;99.90
27900;DHT22;15243;50.726;7.080;2023-06-04T09:21:59;21.40;99.90
27900;DHT22;15243;50.726;7.080;2023-06-04T09:24:46;21.50;99.90
27900;DHT22;15243;50.726;7.080;2023-06-04T09:27:15;21.80;99.90
27900;DHT22;15243;50.726;7.080;2023-06-04T09:29:53;22.00;99.90
27900;DHT22;15243;50.726;7.080;2023-06-04T09:32:30;21.80;99.90
27900;DHT22;15243;50.726;7.080;2023-06-04T09:35:10;21.70;94.70
27900;DHT22;15243;50.726;7.080;2023-06-04T09:37:39;21.90;26.30
27900;DHT22;15243;50.726;7.080;2023-06-04T09:40:08;22.20;1.00
27900;DHT22;15243;50.726;7.080;2023-06-04T09:42:45;22.50;1.00
27900;DHT22;15243;50.726;7.080;2023-06-04T09:45:12;22.40;1.00
27900;DHT22;15243;50.726;7.080;2023-06-04T09:47:43;22.50;1.00
27900;DHT22;15243;50.726;7.080;2023-06-04T09:50:11;22.40;1.00
27900;DHT22;15243;50.726;7.080;2023-06-04T09:52:39;22.60;1.00
27900;DHT22;15243;50.726;7.080;2023-06-04T09:55:17;22.80;1.00
27900;DHT22;15243;50.726;7.080;2023-06-04T09:57:50;22.90;1.00
27900;DHT22;15243;50.726;7.080;2023-06-04T10:00:18;22.80;1.00
27900;DHT22;15243;50.726;7.080;2023-06-04T10:02:46;23.00;1.00
27900;DHT22;15243;50.726;7.080;2023-06-04T10:05:14;23.00;1.00
27900;DHT22;15243;50.726;7.080;2023-06-04T10:07:45;23.20;1.00
27900;DHT22;15243;50.726;7.080;2023-06-04T10:10:16;23.40;1.00
27900;DHT22;15243;50.726;7.080;2023-06-04T10:12:45;23.50;1.00
27900;DHT22;15243;50.726;7.080;2023-06-04T10:15:13;23.70;1.00
27900;DHT22;15243;50.726;7.080;2023-06-04T10:17:40;23.60;1.00
27900;DHT22;15243;50.726;7.080;2023-06-04T10:20:08;23.60;1.00
27900;DHT22;15243;50.726;7.080;2023-06-04T10:22:37;23.20;99.90
27900;DHT22;15243;50.726;7.080;2023-06-04T10:25:05;23.50;99.90
27900;DHT22;15243;50.726;7.080;2023-06-04T10:27:33;23.40;1.00
27900;DHT22;15243;50.726;7.080;2023-06-04T10:30:04;23.50;99.90
27900;DHT22;15243;50.726;7.080;2023-06-04T10:32:31;23.60;1.00
27900;DHT22;15243;50.726;7.080;2023-06-04T10:34:58;23.90;99.90
27900;DHT22;15243;50.726;7.080;2023-06-04T10:37:31;23.90;99.90
27900;DHT22;15243;50.726;7.080;2023-06-04T10:39:58;23.80;99.90
27900;DHT22;15243;50.726;7.080;2023-06-04T10:42:26;24.10;1.00
27900;DHT22;15243;50.726;7.080;2023-06-04T10:44:54;24.50;99.90
27900;DHT22;15243;50.726;7.080;2023-06-04T10:47:25;24.70;99.90
27900;DHT22;15243;50.726;7.080;2023-06-04T10:49:54;24.70;99.90
27900;DHT22;15243;50.726;7.080;2023-06-04T10:52:21;24.40;99.90
27900;DHT22;15243;50.726;7.080;2023-06-04T10:54:48;24.10;99.90
27900;DHT22;15243;50.726;7.080;2023-06-04T10:57:17;24.50;1.00
27900;DHT22;15243;50.726;7.080;2023-06-04T10:59:58;24.60;99.90
27900;DHT22;15243;50.726;7.080;2023-06-04T11:02:26;24.20;99.90
27900;DHT22;15243;50.726;7.080;2023-06-04T11:05:04;24.40;99.90
27900;DHT22;15243;50.726;7.080;2023-06-04T11:07:43;24.60;99.90
27900;DHT22;15243;50.726;7.080;2023-06-04T11:10:12;24.40;99.90
27900;DHT22;15243;50.726;7.080;2023-06-04T11:12:46;24.80;99.90
27900;DHT22;15243;50.726;7.080;2023-06-04T11:15:14;25.20;99.90
27900;DHT22;15243;50.726;7.080;2023-06-04T11:18:00;25.40;99.90
27900;DHT22;15243;50.726;7.080;2023-06-04T11:20:27;25.50;99.90
27900;DHT22;15243;50.726;7.080;2023-06-04T11:22:56;25.30;99.90
27900;DHT22;15243;50.726;7.080;2023-06-04T11:25:26;25.60;99.90
27900;DHT22;15243;50.726;7.080;2023-06-04T11:27:55;25.60;99.90
27900;DHT22;15243;50.726;7.080;2023-06-04T11:30:24;25.10;99.90
27900;DHT22;15243;50.726;7.080;2023-06-04T11:33:00;25.10;99.90
27900;DHT22;15243;50.726;7.080;2023-06-04T11:35:27;24.90;99.90
27900;DHT22;15243;50.726;7.080;2023-06-04T11:37:56;25.00;99.90
27900;DHT22;15243;50.726;7.080;2023-06-04T11:40:23;25.40;99.90
27900;DHT22;15243;50.726;7.080;2023-06-04T11:42:52;25.80;99.90
27900;DHT22;15243;50.726;7.080;2023-06-04T11:45:20;25.90;99.90
27900;DHT22;15243;50.726;7.080;2023-06-04T11:47:53;26.20;99.90
27900;DHT22;15243;50.726;7.080;2023-06-04T11:50:28;25.70;99.90
27900;DHT22;15243;50.726;7.080;2023-06-04T11:52:55;25.90;99.90
27900;DHT22;15243;50.726;7.080;2023-06-04T11:55:22;25.90;99.90
27900;DHT22;15243;50.726;7.080;2023-06-04T11:57:50;26.20;99.90
27900;DHT22;15243;50.726;7.080;2023-06-04T12:00:18;26.20;99.90
27900;DHT22;15243;50.726;7.080;2023-06-04T12:02:53;26.60;99.90
27900;DHT22;15243;50.726;7.080;2023-06-04T12:05:30;26.50;99.90
27900;DHT22;15243;50.726;7.080;2023-06-04T12:08:08;26.50;99.90
27900;DHT22;15243;50.726;7.080;2023-06-04T12:10:37;26.60;99.90
27900;DHT22;15243;50.726;7.080;2023-06-04T12:13:05;26.70;99.90
27900;DHT22;15243;50.726;7.080;2023-06-04T12:15:32;27.00;99.90
27900;DHT22;15243;50.726;7.080;2023-06-04T12:17:59;26.80;99.90
27900;DHT22;15243;50.726;7.080;2023-06-04T12:20:33;26.60;99.90
27900;DHT22;15243;50.726;7.080;2023-06-04T12:23:01;26.40;99.90
27900;DHT22;15243;50.726;7.080;2023-06-04T12:25:29;26.10;99.90
27900;DHT22;15243;50.726;7.080;2023-06-04T12:27:57;26.10;99.90
27900;DHT22;15243;50.726;7.080;2023-06-04T12:30:38;26.50;99.90
27900;DHT22;15243;50.726;7.080;2023-06-04T12:33:05;26.70;99.90
27900;DHT22;15243;50.726;7.080;2023-06-04T12:35:33;26.90;99.90
27900;DHT22;15243;50.726;7.080;2023-06-04T12:38:04;27.20;99.90
27900;DHT22;15243;50.726;7.080;2023-06-04T12:40:32;27.40;99.90
27900;DHT22;15243;50.726;7.080;2023-06-04T12:42:59;27.20;99.90
27900;DHT22;15243;50.726;7.080;2023-06-04T12:45:27;27.30;99.90
27900;DHT22;15243;50.726;7.080;2023-06-04T12:47:54;27.20;99.90
27900;DHT22;15243;50.726;7.080;2023-06-04T12:50:21;27.20;99.90
27900;DHT22;15243;50.726;7.080;2023-06-04T12:52:48;27.20;99.90
27900;DHT22;15243;50.726;7.080;2023-06-04T12:55:15;26.90;99.90
27900;DHT22;15243;50.726;7.080;2023-06-04T12:57:42;26.90;99.90
27900;DHT22;15243;50.726;7.080;2023-06-04T13:00:11;27.10;99.90
27900;DHT22;15243;50.726;7.080;2023-06-04T13:02:38;27.30;99.90
27900;DHT22;15243;50.726;7.080;2023-06-04T13:05:06;27.50;99.90
27900;DHT22;15243;50.726;7.080;2023-06-04T13:07:33;28.20;99.90
27900;DHT22;15243;50.726;7.080;2023-06-04T13:10:00;28.90;99.90
27900;DHT22;15243;50.726;7.080;2023-06-04T13:12:27;29.00;99.90
27900;DHT22;15243;50.726;7.080;2023-06-04T13:14:54;29.40;99.90
27900;DHT22;15243;50.726;7.080;2023-06-04T13:17:22;29.50;99.90
27900;DHT22;15243;50.726;7.080;2023-06-04T13:19:49;29.20;99.90
27900;DHT22;15243;50.726;7.080;2023-06-04T13:22:16;29.10;99.90
27900;DHT22;15243;50.726;7.080;2023-06-04T13:24:43;29.50;99.90
27900;DHT22;15243;50.726;7.080;2023-06-04T13:27:10;30.10;99.90
27900;DHT22;15243;50.726;7.080;2023-06-04T13:29:37;30.90;99.90
27900;DHT22;15243;50.726;7.080;2023-06-04T13:32:04;31.40;99.90
27900;DHT22;15243;50.726;7.080;2023-06-04T13:34:32;31.90;99.90
27900;DHT22;15243;50.726;7.080;2023-06-04T13:36:59;32.30;99.90
27900;DHT22;15243;50.726;7.080;2023-06-04T13:39:26;31.20;99.90
27900;DHT22;15243;50.726;7.080;2023-06-04T13:41:53;30.90;99.90
27900;DHT22;15243;50.726;7.080;2023-06-04T13:44:21;31.50;99.90
27900;DHT22;15243;50.726;7.080;2023-06-04T13:46:53;31.90;99.90
27900;DHT22;15243;50.726;7.080;2023-06-04T13:49:20;33.00;99.90
27900;DHT22;15243;50.726;7.080;2023-06-04T13:51:47;31.20;99.90
27900;DHT22;15243;50.726;7.080;2023-06-04T13:54:14;30.40;99.90
27900;DHT22;15243;50.726;7.080;2023-06-04T13:56:41;30.80;99.90
27900;DHT22;15243;50.726;7.080;2023-06-04T13:59:08;31.70;99.90
27900;DHT22;15243;50.726;7.080;2023-06-04T14:01:35;32.40;99.90
27900;DHT22;15243;50.726;7.080;2023-06-04T14:04:02;31.30;99.90
27900;DHT22;15243;50.726;7.080;2023-06-04T14:06:34;30.80;99.90
27900;DHT22;15243;50.726;7.080;2023-06-04T14:09:03;32.10;99.90
27900;DHT22;15243;50.726;7.080;2023-06-04T14:11:30;32.80;99.90
27900;DHT22;15243;50.726;7.080;2023-06-04T14:13:59;34.50;99.90
27900;DHT22;15243;50.726;7.080;2023-06-04T14:16:26;34.30;99.90
27900;DHT22;15243;50.726;7.080;2023-06-04T14:18:53;33.70;99.90
27900;DHT22;15243;50.726;7.080;2023-06-04T14:21:20;32.80;99.90
27900;DHT22;15243;50.726;7.080;2023-06-04T14:23:48;34.00;99.90
27900;DHT22;15243;50.726;7.080;2023-06-04T14:26:17;33.80;99.90
27900;DHT22;15243;50.726;7.080;2023-06-04T14:28:44;34.00;99.90
27900;DHT22;15243;50.726;7.080;2023-06-04T14:31:11;34.60;99.90
27900;DHT22;15243;50.726;7.080;2023-06-04T14:33:38;34.00;99.90
27900;DHT22;15243;50.726;7.080;2023-06-04T14:36:06;34.20;99.90
27900;DHT22;15243;50.726;7.080;2023-06-04T14:38:33;35.20;99.90
27900;DHT22;15243;50.726;7.080;2023-06-04T14:41:00;36.30;99.90
27900;DHT22;15243;50.726;7.080;2023-06-04T14:43:27;34.60;99.90
27900;DHT22;15243;50.726;7.080;2023-06-04T14:45:54;34.60;99.90
27900;DHT22;15243;50.726;7.080;2023-06-04T14:48:21;35.90;99.90
27900;DHT22;15243;50.726;7.080;2023-06-04T14:50:48;35.80;99.90
27900;DHT22;15243;50.726;7.080;2023-06-04T14:53:16;36.20;99.90
27900;DHT22;15243;50.726;7.080;2023-06-04T14:55:43;35.70;99.90
27900;DHT22;15243;50.726;7.080;2023-06-04T14:58:10;35.80;99.90
27900;DHT22;15243;50.726;7.080;2023-06-04T15:00:38;34.70;99.90
27900;DHT22;15243;50.726;7.080;2023-06-04T15:03:05;35.60;99.90
27900;DHT22;15243;50.726;7.080;2023-06-04T15:05:32;35.20;99.90
27900;DHT22;15243;50.726;7.080;2023-06-04T15:08:01;36.30;99.90
27900;DHT22;15243;50.726;7.080;2023-06-04T15:10:29;37.30;99.90
27900;DHT22;15243;50.726;7.080;2023-06-04T15:12:56;36.80;99.90
27900;DHT22;15243;50.726;7.080;2023-06-04T15:15:23;37.20;99.90
27900;DHT22;15243;50.726;7.080;2023-06-04T15:17:52;36.20;99.90
27900;DHT22;15243;50.726;7.080;2023-06-04T15:20:19;34.10;99.90
27900;DHT22;15243;50.726;7.080;2023-06-04T15:22:46;34.90;99.90
27900;DHT22;15243;50.726;7.080;2023-06-04T15:25:13;36.00;99.90
27900;DHT22;15243;50.726;7.080;2023-06-04T15:27:40;36.10;99.90
27900;DHT22;15243;50.726;7.080;2023-06-04T15:30:07;35.50;99.90
27900;DHT22;15243;50.726;7.080;2023-06-04T15:32:35;32.60;99.90
27900;DHT22;15243;50.726;7.080;2023-06-04T15:35:03;31.20;99.90
27900;DHT22;15243;50.726;7.080;2023-06-04T15:37:30;31.10;99.90
27900;DHT22;15243;50.726;7.080;2023-06-04T15:39:57;29.80;99.90
27900;DHT22;15243;50.726;7.080;2023-06-04T15:42:27;29.90;99.90
27900;DHT22;15243;50.726;7.080;2023-06-04T15:44:54;29.80;99.90